CheckWX is a tool to help pilots better visualize weather data.  It is not intended as a substitute for an official pre-flight weather briefing.

12:39:52 UTC

KGRB TAF
Green Bay-Austin Straubel International Airport
Green Bay, Wisconsin, USA
KGRB 261127Z 2612/2712 26008KT P6SM SKC FM261700 27010G17KT P6SM SCT050 FM262300 24006KT P6SM SCT070 FM270400 VRB03KT P6SM SCT090

Jun-26@
12:00 UTC

Jun-26 @ 12:00 UTC

Jun-26@
17:00 UTC

Jun-26 @ 17:00 UTC

KGRB 261127Z 2612/2712 26008KT P6SM SKC
Wind
  • 260° at 8 KTS
Cloud Levels
  • Clear skies

Jun-26@
17:00 UTC

Jun-26 @ 17:00 UTC

Jun-26@
23:00 UTC

Jun-26 @ 23:00 UTC

FM261700 27010G17KT P6SM SCT050

From

From Standard forecast or significant change

Wind
  • 270° at 10 KTS
  • {Gusting to 17 KTS
Cloud Levels
  • Scattered at 5,000' AGL

Jun-26@
23:00 UTC

Jun-26 @ 23:00 UTC

Jun-27@
04:00 UTC

Jun-27 @ 04:00 UTC

FM262300 24006KT P6SM SCT070

From

From Standard forecast or significant change

Wind
  • 240° at 6 KTS
Cloud Levels
  • Scattered at 7,000' AGL

Jun-27@
04:00 UTC

Jun-27 @ 04:00 UTC

Jun-27@
12:00 UTC

Jun-27 @ 12:00 UTC

FM270400 VRB03KT P6SM SCT090

From

From Standard forecast or significant change

Wind
  • Variable at 3 KTS
Cloud Levels
  • Scattered at 9,000' AGL